createdAt,value
2019-03-24T00:00:14.945Z,74.37
2019-03-24T00:01:25.041Z,55.97
2019-03-24T00:02:33.016Z,53.87
2019-03-24T00:03:41.200Z,46.20
2019-03-24T00:04:49.235Z,50.93
2019-03-24T00:05:57.169Z,54.33
2019-03-24T00:07:05.136Z,79.27
2019-03-24T00:08:13.483Z,101.73
2019-03-24T00:09:21.587Z,56.33
2019-03-24T00:10:29.551Z,51.23
2019-03-24T00:11:37.859Z,47.27
2019-03-24T00:12:46.061Z,58.40
2019-03-24T00:13:54.700Z,43.17
2019-03-24T00:15:02.714Z,86.63
2019-03-24T00:16:10.985Z,76.97
2019-03-24T00:17:19.213Z,55.20
2019-03-24T00:18:27.228Z,84.77
2019-03-24T00:19:35.321Z,38.60
2019-03-24T00:20:43.330Z,52.60
2019-03-24T00:21:51.590Z,39.30
2019-03-24T00:22:59.572Z,62.03
2019-03-24T00:24:07.518Z,76.47
2019-03-24T00:25:15.673Z,51.00
2019-03-24T00:26:23.776Z,47.13
2019-03-24T00:27:32.104Z,54.07
2019-03-24T00:28:40.047Z,52.70
2019-03-24T00:29:48.065Z,47.10
2019-03-24T00:30:56.211Z,43.83
2019-03-24T00:32:04.342Z,76.00
2019-03-24T00:33:12.201Z,76.37
2019-03-24T00:34:20.194Z,45.53
2019-03-24T00:35:28.611Z,56.50
2019-03-24T00:36:36.607Z,57.90
2019-03-24T00:37:44.503Z,38.87
2019-03-24T00:38:52.494Z,83.13
2019-03-24T00:40:00.834Z,64.47
2019-03-24T00:41:09.009Z,71.70
2019-03-24T00:42:16.898Z,84.87
2019-03-24T00:43:25.228Z,59.37
2019-03-24T00:44:33.287Z,52.43
2019-03-24T00:45:41.509Z,43.53
2019-03-24T00:46:49.682Z,40.63
2019-03-24T00:47:59.944Z,39.93
2019-03-24T00:49:07.998Z,81.57
2019-03-24T00:50:16.242Z,73.13
2019-03-24T00:51:24.241Z,50.30
2019-03-24T00:52:32.345Z,45.13
2019-03-24T00:53:40.231Z,63.70
2019-03-24T00:54:48.240Z,40.80
2019-03-24T00:55:56.260Z,59.20
2019-03-24T00:57:04.636Z,81.13
2019-03-24T00:58:12.578Z,69.50
2019-03-24T00:59:20.915Z,55.97
2019-03-24T01:00:50.850Z,75.57
2019-03-24T01:01:59.027Z,60.73
2019-03-24T01:03:07.239Z,96.23
2019-03-24T01:04:17.085Z,94.30
2019-03-24T01:05:25.027Z,41.33
2019-03-24T01:06:32.890Z,44.83
2019-03-24T01:07:41.894Z,44.90
2019-03-24T01:08:50.075Z,38.60
2019-03-24T01:09:58.452Z,35.20
2019-03-24T01:11:06.899Z,74.83
2019-03-24T01:12:14.868Z,84.77
2019-03-24T01:13:22.715Z,45.60
2019-03-24T01:14:30.714Z,65.10
2019-03-24T01:15:47.330Z,59.47
2019-03-24T01:16:48.788Z,43.77
2019-03-24T01:17:57.441Z,42.67
2019-03-24T01:19:05.813Z,84.00
2019-03-24T01:20:14.010Z,80.43
2019-03-24T01:21:21.941Z,51.27
2019-03-24T01:22:30.205Z,62.63
2019-03-24T01:23:38.127Z,54.03
2019-03-24T01:24:46.274Z,42.00
2019-03-24T01:25:54.451Z,48.77
2019-03-24T01:27:02.853Z,57.67
2019-03-24T01:28:11.073Z,82.30
2019-03-24T01:29:18.813Z,66.70
2019-03-24T01:30:27.080Z,38.03
2019-03-24T01:31:35.400Z,25.30
2019-03-24T01:32:43.511Z,37.20
2019-03-24T01:33:51.576Z,33.63
2019-03-24T01:34:59.894Z,34.27
2019-03-24T01:36:08.097Z,77.83
2019-03-24T01:37:16.144Z,72.33
2019-03-24T01:38:24.289Z,64.07
2019-03-24T01:39:32.422Z,57.17
2019-03-24T01:40:40.462Z,62.50
2019-03-24T01:41:48.662Z,51.03
2019-03-24T01:42:56.719Z,56.20
2019-03-24T01:44:04.701Z,64.93
2019-03-24T01:45:12.949Z,79.70
2019-03-24T01:46:21.022Z,46.97
2019-03-24T01:47:29.114Z,29.13
2019-03-24T01:48:37.177Z,46.93
2019-03-24T01:49:45.316Z,41.10
2019-03-24T01:50:53.404Z,46.93
2019-03-24T01:52:01.420Z,42.20
2019-03-24T01:53:09.560Z,93.47
2019-03-24T01:54:17.849Z,61.00
2019-03-24T01:55:25.981Z,38.13
2019-03-24T01:56:34.452Z,50.17
2019-03-24T01:57:42.957Z,44.20
2019-03-24T01:58:51.162Z,53.93
2019-03-24T01:59:59.571Z,59.67
2019-03-24T02:01:07.875Z,67.97
2019-03-24T02:02:16.475Z,76.60
2019-03-24T02:03:24.660Z,34.87
2019-03-24T02:04:33.179Z,35.23
2019-03-24T02:05:41.468Z,27.47
2019-03-24T02:06:49.674Z,25.67
2019-03-24T02:07:58.086Z,47.97
2019-03-24T02:09:08.588Z,58.37
2019-03-24T02:10:16.961Z,76.10
2019-03-24T02:11:25.143Z,50.30
2019-03-24T02:12:33.145Z,28.03
2019-03-24T02:13:40.955Z,45.83
2019-03-24T02:14:48.812Z,35.97
2019-03-24T02:15:57.023Z,42.27
2019-03-24T02:17:05.320Z,49.73
2019-03-24T02:18:13.839Z,72.27
2019-03-24T02:19:22.156Z,59.47
2019-03-24T02:20:30.535Z,48.10
2019-03-24T02:21:38.637Z,55.43
2019-03-24T02:22:46.929Z,54.73
2019-03-24T02:23:55.578Z,28.10
2019-03-24T02:25:03.831Z,47.13
2019-03-24T02:26:11.888Z,72.50
2019-03-24T02:27:20.252Z,74.77
2019-03-24T02:28:28.325Z,34.77
2019-03-24T02:29:36.526Z,43.43
2019-03-24T02:30:45.236Z,40.17
2019-03-24T02:31:53.124Z,33.00
2019-03-24T02:33:01.471Z,35.60
2019-03-24T02:34:09.734Z,60.67
2019-03-24T02:35:18.116Z,79.70
2019-03-24T02:36:26.251Z,33.53
2019-03-24T02:37:34.540Z,32.87
2019-03-24T02:38:42.633Z,29.73
2019-03-24T02:39:50.829Z,35.07
2019-03-24T02:40:58.989Z,36.73
2019-03-24T02:42:06.940Z,44.07
2019-03-24T02:43:14.877Z,62.77
2019-03-24T02:44:23.118Z,48.17
2019-03-24T02:45:31.461Z,27.77
2019-03-24T02:46:39.779Z,35.23
2019-03-24T02:47:47.648Z,40.60
2019-03-24T02:48:56.028Z,33.80
2019-03-24T02:50:04.061Z,25.90
2019-03-24T02:51:12.325Z,62.40
2019-03-24T02:52:20.300Z,56.53
2019-03-24T02:53:28.508Z,33.53
2019-03-24T02:54:36.811Z,34.47
2019-03-24T02:55:44.907Z,38.37
2019-03-24T02:56:53.231Z,23.20
2019-03-24T02:58:01.570Z,37.83
2019-03-24T02:59:09.500Z,51.53
2019-03-24T03:00:19.908Z,62.07
2019-03-24T03:01:27.867Z,24.03
2019-03-24T03:02:36.048Z,23.27
2019-03-24T03:03:44.254Z,24.67
2019-03-24T03:04:52.238Z,16.77
2019-03-24T03:06:00.523Z,21.33
2019-03-24T03:07:08.962Z,41.23
2019-03-24T03:08:17.075Z,47.20
2019-03-24T03:09:25.113Z,26.90
2019-03-24T03:10:33.073Z,16.67
2019-03-24T03:11:41.417Z,17.57
2019-03-24T03:12:49.612Z,12.17
2019-03-24T03:13:57.610Z,26.00
2019-03-24T03:15:08.805Z,21.07
2019-03-24T03:16:16.722Z,44.00
2019-03-24T03:17:24.736Z,45.07
2019-03-24T03:18:32.538Z,19.07
2019-03-24T03:19:40.674Z,23.47
2019-03-24T03:20:48.514Z,21.63
2019-03-24T03:21:56.669Z,22.03
2019-03-24T03:23:04.652Z,20.60
2019-03-24T03:24:12.576Z,49.73
2019-03-24T03:25:20.551Z,46.53
2019-03-24T03:26:28.653Z,26.57
2019-03-24T03:27:36.785Z,16.13
2019-03-24T03:28:44.601Z,14.73
2019-03-24T03:29:52.455Z,26.73
2019-03-24T03:31:00.571Z,16.07
2019-03-24T03:32:08.644Z,27.03
2019-03-24T03:33:17.546Z,44.57
2019-03-24T03:34:25.921Z,32.00
2019-03-24T03:35:34.041Z,13.57
2019-03-24T03:36:42.318Z,15.00
2019-03-24T03:37:50.244Z,21.67
2019-03-24T03:38:58.566Z,14.27
2019-03-24T03:40:09.378Z,22.80
2019-03-24T03:41:17.607Z,43.87
2019-03-24T03:42:25.648Z,27.23
2019-03-24T03:43:33.801Z,18.57
2019-03-24T03:44:41.963Z,22.70
2019-03-24T03:45:49.843Z,13.30
2019-03-24T03:46:57.740Z,17.17
2019-03-24T03:48:05.975Z,16.07
2019-03-24T03:49:14.093Z,41.77
2019-03-24T03:50:22.185Z,36.37
2019-03-24T03:51:30.237Z,11.27
2019-03-24T03:52:38.359Z,15.87
2019-03-24T03:53:46.376Z,21.17
2019-03-24T03:54:56.105Z,20.80
2019-03-24T03:56:04.042Z,23.67
2019-03-24T03:57:12.311Z,36.30
2019-03-24T03:58:20.475Z,42.77
2019-03-24T03:59:28.537Z,29.47
2019-03-24T04:00:37.878Z,13.50
2019-03-24T04:01:45.759Z,15.27
2019-03-24T04:02:53.744Z,12.83
2019-03-24T04:04:01.602Z,16.47
2019-03-24T04:05:09.742Z,20.90
2019-03-24T04:06:17.782Z,42.53
2019-03-24T04:07:25.759Z,30.93
2019-03-24T04:08:33.567Z,12.97
2019-03-24T04:09:41.458Z,13.50
2019-03-24T04:10:49.359Z,10.93
2019-03-24T04:11:57.332Z,20.77
2019-03-24T04:13:05.463Z,21.67
2019-03-24T04:14:13.736Z,38.80
2019-03-24T04:15:21.684Z,37.37
2019-03-24T04:16:30.033Z,10.37
2019-03-24T04:17:38.121Z,13.03
2019-03-24T04:18:46.428Z,13.73
2019-03-24T04:19:54.431Z,11.00
2019-03-24T04:21:02.272Z,11.90
2019-03-24T04:22:10.327Z,19.03
2019-03-24T04:23:18.324Z,35.27
2019-03-24T04:24:26.304Z,38.67
2019-03-24T04:25:34.405Z,12.57
2019-03-24T04:26:42.576Z,12.23
2019-03-24T04:27:50.608Z,17.43
2019-03-24T04:28:58.548Z,11.37
2019-03-24T04:30:08.622Z,14.13
2019-03-24T04:31:16.615Z,41.90
2019-03-24T04:32:24.581Z,40.30
2019-03-24T04:33:32.421Z,13.23
2019-03-24T04:34:40.262Z,10.80
2019-03-24T04:35:48.598Z,10.10
2019-03-24T04:36:56.508Z,12.20
2019-03-24T04:38:04.600Z,11.60
2019-03-24T04:39:12.800Z,25.50
2019-03-24T04:40:20.996Z,41.50
2019-03-24T04:41:28.779Z,34.27
2019-03-24T04:42:36.681Z,21.17
2019-03-24T04:43:44.746Z,16.87
2019-03-24T04:44:52.618Z,12.67
2019-03-24T04:46:00.544Z,17.57
2019-03-24T04:47:16.300Z,10.90
2019-03-24T04:48:18.262Z,45.27
2019-03-24T04:49:26.268Z,34.87
2019-03-24T04:50:34.277Z,14.90
2019-03-24T04:51:41.989Z,17.43
2019-03-24T04:52:49.946Z,5.93
2019-03-24T04:53:57.839Z,13.70
2019-03-24T04:55:07.598Z,8.83
2019-03-24T04:56:15.589Z,35.07
2019-03-24T04:57:23.687Z,42.20
2019-03-24T04:58:31.871Z,15.80
2019-03-24T04:59:39.805Z,10.80
2019-03-24T05:00:47.861Z,15.00
2019-03-24T05:01:56.172Z,12.67
2019-03-24T05:03:04.272Z,11.30
2019-03-24T05:04:12.461Z,15.83
2019-03-24T05:05:20.555Z,36.80
2019-03-24T05:06:28.746Z,33.03
2019-03-24T05:07:36.992Z,8.40
2019-03-24T05:08:46.584Z,10.43
2019-03-24T05:09:55.333Z,15.47
2019-03-24T05:11:03.249Z,18.97
2019-03-24T05:12:11.385Z,16.30
2019-03-24T05:13:19.388Z,41.13
2019-03-24T05:14:27.173Z,35.73
2019-03-24T05:15:35.027Z,19.67
2019-03-24T05:16:43.062Z,11.60
2019-03-24T05:17:51.031Z,7.73
2019-03-24T05:18:59.151Z,13.93
2019-03-24T05:20:07.988Z,9.67
2019-03-24T05:21:16.149Z,40.80
2019-03-24T05:22:24.067Z,40.30
2019-03-24T05:23:32.253Z,16.33
2019-03-24T05:24:40.328Z,13.90
2019-03-24T05:25:48.651Z,8.53
2019-03-24T05:26:56.754Z,11.40
2019-03-24T05:28:04.781Z,14.17
2019-03-24T05:29:13.042Z,23.10
2019-03-24T05:30:21.140Z,39.33
2019-03-24T05:31:29.249Z,36.47
2019-03-24T05:32:37.435Z,9.77
2019-03-24T05:33:45.434Z,8.43
2019-03-24T05:34:53.363Z,5.00
2019-03-24T05:36:01.601Z,7.43
2019-03-24T05:37:09.844Z,12.57
2019-03-24T05:38:17.863Z,34.00
2019-03-24T05:39:26.140Z,33.10
2019-03-24T05:40:34.049Z,14.07
2019-03-24T05:41:42.010Z,12.33
2019-03-24T05:42:50.211Z,11.87
2019-03-24T05:43:58.730Z,22.97
2019-03-24T05:45:10.210Z,8.77
2019-03-24T05:46:18.340Z,29.33
2019-03-24T05:47:36.635Z,40.93
2019-03-24T05:48:36.305Z,8.23
2019-03-24T05:49:44.423Z,9.07
2019-03-24T05:50:52.522Z,8.93
2019-03-24T05:52:00.719Z,11.67
2019-03-24T05:53:08.736Z,4.73
2019-03-24T05:54:16.825Z,30.17
2019-03-24T05:55:24.992Z,41.03
2019-03-24T05:56:33.016Z,22.80
2019-03-24T05:57:40.896Z,13.47
2019-03-24T05:58:48.770Z,22.20
2019-03-24T05:59:56.942Z,11.87
2019-03-24T06:01:04.962Z,10.17
2019-03-24T06:02:13.007Z,9.93
2019-03-24T06:03:21.177Z,46.50
2019-03-24T06:04:29.290Z,40.73
2019-03-24T06:05:37.437Z,10.70
2019-03-24T06:06:45.474Z,10.77
2019-03-24T06:07:53.679Z,8.50
2019-03-24T06:09:02.029Z,8.90
2019-03-24T06:10:10.398Z,10.67
2019-03-24T06:11:18.560Z,33.63
2019-03-24T06:12:26.582Z,35.30
2019-03-24T06:13:35.132Z,20.63
2019-03-24T06:14:43.155Z,12.73
2019-03-24T06:15:51.448Z,12.27
2019-03-24T06:16:59.449Z,13.43
2019-03-24T06:18:07.591Z,9.33
2019-03-24T06:19:15.975Z,21.67
2019-03-24T06:20:24.047Z,33.73
2019-03-24T06:21:32.452Z,30.77
2019-03-24T06:22:40.828Z,10.80
2019-03-24T06:23:48.732Z,7.00
2019-03-24T06:24:59.012Z,14.87
2019-03-24T06:26:06.888Z,7.13
2019-03-24T06:27:15.013Z,13.60
2019-03-24T06:28:23.505Z,36.70
2019-03-24T06:29:31.866Z,37.73
2019-03-24T06:30:40.280Z,9.37
2019-03-24T06:31:48.803Z,23.10
2019-03-24T06:32:56.969Z,14.27
2019-03-24T06:34:05.045Z,18.67
2019-03-24T06:35:13.294Z,9.73
2019-03-24T06:36:21.522Z,31.50
2019-03-24T06:37:29.835Z,39.97
2019-03-24T06:38:38.206Z,9.17
2019-03-24T06:39:46.254Z,14.23
2019-03-24T06:40:54.495Z,7.70
2019-03-24T06:42:02.668Z,10.10
2019-03-24T06:43:10.757Z,15.10
2019-03-24T06:44:19.134Z,28.17
2019-03-24T06:45:28.751Z,39.23
2019-03-24T06:46:36.757Z,16.47
2019-03-24T06:47:45.035Z,7.10
2019-03-24T06:48:53.371Z,10.93
2019-03-24T06:50:01.700Z,14.80
2019-03-24T06:51:09.878Z,8.10
2019-03-24T06:52:18.115Z,23.37
2019-03-24T06:53:26.258Z,36.00
2019-03-24T06:54:34.274Z,30.23
2019-03-24T06:55:42.444Z,11.73
2019-03-24T06:56:50.522Z,7.80
2019-03-24T06:57:59.059Z,13.27
2019-03-24T06:59:07.405Z,7.70
2019-03-24T07:00:16.111Z,11.50
2019-03-24T07:01:24.155Z,34.40
2019-03-24T07:02:32.640Z,37.77
2019-03-24T07:03:40.669Z,16.10
2019-03-24T07:04:48.887Z,19.13
2019-03-24T07:05:57.423Z,18.00
2019-03-24T07:07:46.272Z,12.40
2019-03-24T07:08:54.650Z,7.13
2019-03-24T07:10:03.031Z,11.93
2019-03-24T07:11:13.907Z,9.17
2019-03-24T07:12:21.884Z,30.10
2019-03-24T07:13:30.592Z,39.17
2019-03-24T07:14:38.892Z,38.27
2019-03-24T07:15:46.943Z,11.70
2019-03-24T07:16:54.898Z,8.07
2019-03-24T07:18:08.397Z,11.40
2019-03-24T07:19:13.969Z,26.70
2019-03-24T07:20:22.064Z,29.30
2019-03-24T07:21:30.457Z,43.50
2019-03-24T07:22:38.695Z,31.20
2019-03-24T07:23:46.889Z,31.50
2019-03-24T07:24:55.060Z,12.60
2019-03-24T07:26:03.000Z,8.63
2019-03-24T07:27:10.954Z,9.77
2019-03-24T07:28:19.102Z,12.67
2019-03-24T07:29:27.248Z,39.57
2019-03-24T07:30:35.651Z,36.57
2019-03-24T07:31:43.546Z,9.47
2019-03-24T07:32:51.533Z,9.30
2019-03-24T07:33:59.654Z,7.33
2019-03-24T07:35:08.860Z,18.30
2019-03-24T07:36:17.050Z,12.20
2019-03-24T07:37:25.254Z,35.90
2019-03-24T07:38:33.762Z,43.13
2019-03-24T07:39:42.077Z,13.07
2019-03-24T07:40:49.938Z,9.07
2019-03-24T07:41:57.834Z,7.97
2019-03-24T07:43:05.944Z,14.83
2019-03-24T07:44:13.858Z,6.90
2019-03-24T07:45:22.018Z,47.37
2019-03-24T07:46:30.066Z,45.63
2019-03-24T07:47:38.211Z,22.83
2019-03-24T07:48:46.409Z,9.50
2019-03-24T07:49:54.318Z,9.00
2019-03-24T07:51:02.442Z,12.70
2019-03-24T07:52:11.010Z,17.17
2019-03-24T07:53:20.295Z,24.00
2019-03-24T07:54:28.166Z,38.37
2019-03-24T07:55:36.694Z,35.53
2019-03-24T07:56:44.624Z,7.70
2019-03-24T07:57:52.635Z,16.87
2019-03-24T07:59:01.041Z,7.23
2019-03-24T08:00:12.421Z,15.23
2019-03-24T08:01:20.387Z,17.90
2019-03-24T08:02:28.594Z,34.03
2019-03-24T08:03:36.379Z,37.13
2019-03-24T08:04:44.308Z,11.73
2019-03-24T08:05:52.277Z,14.20
2019-03-24T08:07:00.546Z,13.00
2019-03-24T08:08:08.671Z,13.93
2019-03-24T08:09:16.682Z,9.63
2019-03-24T08:10:24.559Z,44.37
2019-03-24T08:11:33.064Z,38.70
2019-03-24T08:12:41.281Z,14.57
2019-03-24T08:13:53.908Z,7.47
2019-03-24T08:15:00.088Z,11.73
2019-03-24T08:16:08.320Z,7.73
2019-03-24T08:17:16.322Z,17.13
2019-03-24T08:18:29.858Z,36.57
2019-03-24T08:19:34.098Z,38.17
2019-03-24T08:20:42.348Z,16.67
2019-03-24T08:21:50.440Z,17.63
2019-03-24T08:22:58.638Z,9.13
2019-03-24T08:24:06.771Z,9.43
2019-03-24T08:25:15.470Z,6.80
2019-03-24T08:26:23.547Z,28.33
2019-03-24T08:27:31.536Z,35.90
2019-03-24T08:28:39.974Z,14.97
2019-03-24T08:29:49.636Z,11.07
2019-03-24T08:30:57.806Z,12.77
2019-03-24T08:32:05.924Z,13.23
2019-03-24T08:33:14.199Z,11.73
2019-03-24T08:34:22.584Z,34.70
2019-03-24T08:35:30.831Z,40.83
2019-03-24T08:36:39.007Z,27.53
2019-03-24T08:37:47.155Z,19.77
2019-03-24T08:38:55.505Z,22.57
2019-03-24T08:40:04.090Z,9.23
2019-03-24T08:41:12.141Z,14.70
2019-03-24T08:42:20.587Z,11.70
2019-03-24T08:43:28.890Z,46.43
2019-03-24T08:44:36.963Z,34.90
2019-03-24T08:45:45.077Z,17.63
2019-03-24T08:46:53.073Z,19.60
2019-03-24T08:48:01.385Z,13.23
2019-03-24T08:49:09.991Z,20.60
2019-03-24T08:50:18.168Z,15.83
2019-03-24T08:51:26.699Z,43.53
2019-03-24T08:52:35.225Z,40.00
2019-03-24T08:53:43.392Z,8.57
2019-03-24T08:54:51.484Z,11.70
2019-03-24T08:55:59.433Z,11.80
2019-03-24T08:57:07.691Z,7.13
2019-03-24T08:58:15.905Z,22.50
2019-03-24T08:59:25.231Z,30.03
2019-03-24T09:00:33.455Z,40.30
2019-03-24T09:01:41.914Z,21.47
2019-03-24T09:02:50.176Z,21.03
2019-03-24T09:03:58.298Z,19.13
2019-03-24T09:05:08.311Z,10.23
2019-03-24T09:06:16.332Z,9.17
2019-03-24T09:07:24.460Z,29.37
2019-03-24T09:08:32.796Z,36.07
2019-03-24T09:09:41.595Z,25.03
2019-03-24T09:10:49.781Z,15.13
2019-03-24T09:11:57.780Z,21.20
2019-03-24T09:13:06.824Z,18.00
2019-03-24T09:14:15.316Z,14.37
2019-03-24T09:15:23.228Z,15.97
2019-03-24T09:16:31.655Z,34.47
2019-03-24T09:17:41.389Z,31.53
2019-03-24T09:18:52.873Z,12.00
2019-03-24T09:19:59.061Z,11.97
2019-03-24T09:21:07.580Z,10.50
2019-03-24T09:22:15.699Z,11.00
2019-03-24T09:23:23.874Z,20.63
2019-03-24T09:24:32.182Z,31.70
2019-03-24T09:25:40.728Z,36.13
2019-03-24T09:26:48.795Z,29.53
2019-03-24T09:27:57.095Z,9.33
2019-03-24T09:29:05.188Z,6.80
2019-03-24T09:30:34.973Z,9.83
2019-03-24T09:31:43.296Z,16.73
2019-03-24T09:32:51.513Z,15.63
2019-03-24T09:33:59.891Z,8.27
2019-03-24T09:35:08.875Z,12.37
2019-03-24T09:36:17.104Z,7.87
2019-03-24T09:37:25.109Z,21.93
2019-03-24T09:38:33.103Z,32.83
2019-03-24T09:39:41.582Z,35.03
2019-03-24T09:40:49.512Z,13.50
2019-03-24T09:41:57.500Z,8.23
2019-03-24T09:43:07.313Z,12.60
2019-03-24T09:44:15.526Z,13.30
2019-03-24T09:45:23.722Z,9.90
2019-03-24T09:46:31.757Z,30.57
2019-03-24T09:47:40.470Z,28.87
2019-03-24T09:48:48.531Z,11.90
2019-03-24T09:49:56.431Z,8.77
2019-03-24T09:51:04.603Z,18.87
2019-03-24T09:52:12.919Z,9.77
2019-03-24T09:53:20.973Z,29.73
2019-03-24T09:54:29.114Z,47.83
2019-03-24T09:55:37.295Z,34.17
2019-03-24T09:56:45.513Z,26.17
2019-03-24T09:57:53.616Z,16.97
2019-03-24T09:59:02.135Z,27.90
2019-03-24T10:00:11.084Z,13.13
2019-03-24T10:01:19.185Z,12.03
2019-03-24T10:02:27.273Z,22.50
2019-03-24T10:03:35.378Z,26.70
2019-03-24T10:04:43.620Z,24.27
2019-03-24T10:05:51.720Z,12.70
2019-03-24T10:07:00.005Z,7.33
2019-03-24T10:08:08.255Z,8.00
2019-03-24T10:09:16.315Z,16.37
2019-03-24T10:10:24.808Z,12.07
2019-03-24T10:11:33.224Z,29.73
2019-03-24T10:12:41.682Z,33.40
2019-03-24T10:13:49.842Z,8.37
2019-03-24T10:14:57.863Z,12.57
2019-03-24T10:16:06.013Z,11.70
2019-03-24T10:17:14.626Z,12.77
2019-03-24T10:18:23.089Z,10.77
2019-03-24T10:19:31.190Z,28.90
2019-03-24T10:20:39.324Z,32.57
2019-03-24T10:21:47.732Z,12.23
2019-03-24T10:22:55.937Z,12.47
2019-03-24T10:24:04.026Z,5.63
2019-03-24T10:25:12.474Z,9.03
2019-03-24T10:26:20.484Z,7.80
2019-03-24T10:27:28.733Z,27.20
2019-03-24T10:28:36.931Z,29.10
2019-03-24T10:29:45.281Z,21.57
2019-03-24T10:30:53.744Z,14.30
2019-03-24T10:32:01.915Z,18.33
2019-03-24T10:33:10.179Z,8.37
2019-03-24T10:34:18.951Z,10.53
2019-03-24T10:35:27.195Z,14.67
2019-03-24T10:36:35.349Z,35.03
2019-03-24T10:37:43.475Z,28.90
2019-03-24T10:38:51.546Z,8.87
2019-03-24T10:39:59.637Z,15.23
2019-03-24T10:41:07.646Z,6.20
2019-03-24T10:42:16.073Z,9.83
2019-03-24T10:43:24.066Z,8.77
2019-03-24T10:44:32.243Z,23.23
2019-03-24T10:45:40.170Z,21.27
2019-03-24T10:46:48.457Z,10.43
2019-03-24T10:47:56.617Z,12.40
2019-03-24T10:49:05.036Z,5.70
2019-03-24T10:50:14.755Z,7.73
2019-03-24T10:51:24.615Z,10.60
2019-03-24T10:52:33.131Z,14.93
2019-03-24T10:53:41.206Z,14.40
2019-03-24T10:54:49.569Z,4.53
2019-03-24T10:55:57.960Z,6.93
2019-03-24T10:57:06.583Z,4.87
2019-03-24T10:58:15.035Z,7.23
2019-03-24T10:59:23.078Z,5.27
2019-03-24T11:00:43.049Z,7.90
2019-03-24T11:01:51.200Z,7.37
2019-03-24T11:02:59.408Z,11.03
2019-03-24T11:04:08.215Z,14.57
2019-03-24T11:05:16.411Z,10.37
2019-03-24T11:06:24.619Z,5.87
2019-03-24T11:07:32.761Z,11.63
2019-03-24T11:08:40.908Z,16.10
2019-03-24T11:09:49.513Z,8.13
2019-03-24T11:10:57.729Z,4.15
2019-03-24T11:12:05.907Z,4.95
2019-03-24T11:13:15.372Z,6.47
2019-03-24T11:14:24.016Z,3.55
2019-03-24T11:15:32.095Z,13.80
2019-03-24T11:16:40.529Z,11.85
2019-03-24T11:17:48.784Z,7.12
2019-03-24T11:18:56.991Z,4.37
2019-03-24T11:20:08.566Z,3.98
2019-03-24T11:21:16.832Z,7.25
2019-03-24T11:22:25.107Z,7.80
2019-03-24T11:23:33.241Z,3.55
2019-03-24T11:24:41.667Z,4.83
2019-03-24T11:25:50.170Z,4.83
2019-03-24T11:26:58.241Z,5.62
2019-03-24T11:28:06.429Z,2.85
2019-03-24T11:29:14.582Z,3.70
2019-03-24T11:30:23.168Z,3.85
2019-03-24T11:31:31.730Z,5.00
2019-03-24T11:32:40.053Z,9.05
2019-03-24T11:33:48.871Z,6.12
2019-03-24T11:34:57.264Z,9.03
2019-03-24T11:36:05.936Z,2.85
2019-03-24T11:37:14.301Z,2.40
2019-03-24T11:38:22.984Z,6.53
2019-03-24T11:39:31.063Z,6.25
2019-03-24T11:40:39.201Z,7.42
2019-03-24T11:41:47.411Z,10.58
2019-03-24T11:42:55.397Z,5.60
2019-03-24T11:44:03.759Z,7.65
2019-03-24T11:45:14.349Z,3.52
2019-03-24T11:46:23.331Z,5.83
2019-03-24T11:47:31.382Z,4.78
2019-03-24T11:48:39.550Z,7.95
2019-03-24T11:49:49.429Z,6.62
2019-03-24T11:50:57.382Z,2.92
2019-03-24T11:52:07.123Z,5.03
2019-03-24T11:53:15.089Z,2.40
2019-03-24T11:54:23.411Z,5.33
2019-03-24T11:55:31.752Z,2.80
2019-03-24T11:56:40.104Z,9.05
2019-03-24T11:57:48.269Z,2.87
2019-03-24T11:58:56.259Z,6.25
2019-03-24T12:00:13.361Z,7.15
2019-03-24T12:01:21.730Z,4.83
2019-03-24T12:02:30.075Z,9.80
2019-03-24T12:03:38.032Z,7.67
2019-03-24T12:04:46.224Z,4.85
2019-03-24T12:05:54.622Z,3.77
2019-03-24T12:07:03.316Z,6.80
2019-03-24T12:08:11.545Z,3.15
2019-03-24T12:09:19.731Z,6.92
2019-03-24T12:10:28.017Z,4.33
2019-03-24T12:11:37.161Z,6.50
2019-03-24T12:12:45.381Z,5.58
2019-03-24T12:13:53.772Z,6.78
2019-03-24T12:15:01.867Z,7.47
2019-03-24T12:16:10.059Z,6.42
2019-03-24T12:17:19.093Z,9.85
2019-03-24T12:18:27.210Z,4.37
2019-03-24T12:19:35.353Z,3.02
2019-03-24T12:20:43.656Z,9.18
2019-03-24T12:21:52.486Z,3.40
2019-03-24T12:23:00.756Z,4.58
2019-03-24T12:24:08.804Z,6.10
2019-03-24T12:25:17.072Z,2.17
2019-03-24T12:26:25.481Z,1.95
2019-03-24T12:27:33.705Z,7.28
2019-03-24T12:28:42.271Z,4.78
2019-03-24T12:29:50.432Z,1.17
2019-03-24T12:30:59.434Z,5.40
2019-03-24T12:32:07.979Z,4.30
2019-03-24T12:33:16.533Z,2.87
2019-03-24T12:34:24.976Z,6.33
2019-03-24T12:35:32.846Z,6.87
2019-03-24T12:36:41.110Z,3.35
2019-03-24T12:37:49.338Z,2.85
2019-03-24T12:38:57.654Z,3.47
2019-03-24T12:40:08.596Z,2.62
2019-03-24T12:41:16.927Z,1.72
2019-03-24T12:42:25.016Z,4.37
2019-03-24T12:43:33.080Z,6.53
2019-03-24T12:44:41.457Z,4.65
2019-03-24T12:45:49.727Z,3.83
2019-03-24T12:46:58.125Z,3.52
2019-03-24T12:48:06.170Z,5.95
2019-03-24T12:49:14.338Z,3.25
2019-03-24T12:50:30.894Z,3.15
2019-03-24T12:51:32.245Z,3.20
2019-03-24T12:52:41.127Z,3.02
2019-03-24T12:53:49.198Z,5.22
2019-03-24T12:54:57.318Z,3.72
2019-03-24T12:56:05.642Z,3.45
2019-03-24T12:57:13.708Z,4.08
2019-03-24T12:58:23.060Z,4.60
2019-03-24T12:59:31.182Z,6.12
2019-03-24T13:00:40.622Z,4.80
2019-03-24T13:01:48.683Z,3.90
2019-03-24T13:02:56.995Z,2.55
2019-03-24T13:04:05.178Z,4.72
2019-03-24T13:05:13.901Z,5.62
2019-03-24T13:06:22.173Z,2.92
2019-03-24T13:07:30.363Z,1.92
2019-03-24T13:08:38.089Z,3.83
2019-03-24T13:09:46.276Z,3.62
2019-03-24T13:10:54.604Z,3.47
2019-03-24T13:12:02.706Z,2.55
2019-03-24T13:13:12.170Z,4.25
2019-03-24T13:14:20.832Z,2.52
2019-03-24T13:15:29.202Z,7.12
2019-03-24T13:16:37.310Z,3.77
2019-03-24T13:17:45.430Z,4.40
2019-03-24T13:18:53.627Z,4.05
2019-03-24T13:20:01.959Z,4.33
2019-03-24T13:21:09.897Z,4.97
2019-03-24T13:22:18.116Z,4.22
2019-03-24T13:23:26.055Z,4.78
2019-03-24T13:24:34.291Z,6.40
2019-03-24T13:25:42.509Z,4.85
2019-03-24T13:26:50.511Z,5.97
2019-03-24T13:27:58.918Z,7.40
2019-03-24T13:29:06.855Z,5.95
2019-03-24T13:30:15.363Z,3.87
2019-03-24T13:31:23.608Z,7.35
2019-03-24T13:32:31.610Z,6.05
2019-03-24T13:33:39.501Z,5.30
2019-03-24T13:34:47.566Z,4.97
2019-03-24T13:35:57.657Z,6.47
2019-03-24T13:37:05.885Z,4.70
2019-03-24T13:38:14.010Z,7.80
2019-03-24T13:39:21.926Z,4.50
2019-03-24T13:40:30.021Z,3.85
2019-03-24T13:41:38.103Z,7.35
2019-03-24T13:42:46.019Z,6.85
2019-03-24T13:43:54.141Z,3.85
2019-03-24T13:45:02.612Z,3.58
2019-03-24T13:46:10.912Z,6.62
2019-03-24T13:47:18.908Z,3.45
2019-03-24T13:48:26.990Z,4.17
2019-03-24T13:49:35.056Z,9.03
2019-03-24T13:50:43.303Z,7.35
2019-03-24T13:51:51.264Z,4.08
2019-03-24T13:52:59.602Z,3.42
2019-03-24T13:54:09.062Z,6.17
2019-03-24T13:55:17.105Z,9.45
2019-03-24T13:56:25.273Z,8.68
2019-03-24T13:57:33.262Z,6.35
2019-03-24T13:58:41.087Z,3.65
2019-03-24T13:59:49.205Z,8.20
2019-03-24T14:00:57.331Z,7.08
2019-03-24T14:02:06.057Z,14.15
2019-03-24T14:03:14.112Z,5.35
2019-03-24T14:04:22.146Z,8.45
2019-03-24T14:05:30.200Z,6.62
2019-03-24T14:06:38.134Z,4.78
2019-03-24T14:07:46.294Z,7.83
2019-03-24T14:08:54.514Z,5.45
2019-03-24T14:10:02.808Z,4.55
2019-03-24T14:11:10.773Z,6.08
2019-03-24T14:12:18.861Z,4.90
2019-03-24T14:13:26.823Z,4.15
2019-03-24T14:14:34.907Z,7.05
2019-03-24T14:15:44.003Z,6.12
2019-03-24T14:16:52.081Z,5.78
2019-03-24T14:18:00.583Z,8.33
2019-03-24T14:19:08.676Z,4.33
2019-03-24T14:20:17.333Z,8.70
2019-03-24T14:21:25.286Z,8.18
2019-03-24T14:22:33.572Z,4.47
2019-03-24T14:23:41.792Z,5.87
2019-03-24T14:24:49.829Z,7.17
2019-03-24T14:25:57.893Z,5.80
2019-03-24T14:27:06.290Z,5.80
2019-03-24T14:28:14.272Z,8.08
2019-03-24T14:29:22.286Z,9.43
2019-03-24T14:30:48.083Z,5.28
2019-03-24T14:31:56.203Z,4.90
2019-03-24T14:33:04.631Z,11.25
2019-03-24T14:34:12.716Z,6.58
2019-03-24T14:35:20.977Z,7.37
2019-03-24T14:36:29.037Z,4.50
2019-03-24T14:37:37.067Z,5.28
2019-03-24T14:38:45.192Z,2.83
2019-03-24T14:39:53.105Z,6.65
2019-03-24T14:41:01.402Z,3.37
2019-03-24T14:42:09.882Z,4.15
2019-03-24T14:43:17.892Z,4.92
2019-03-24T14:44:25.900Z,5.87
2019-03-24T14:45:34.302Z,7.05
2019-03-24T14:48:13.472Z,5.92
2019-03-24T14:49:21.548Z,8.63
2019-03-24T14:50:30.343Z,4.37
2019-03-24T14:51:38.768Z,9.18
2019-03-24T14:52:47.201Z,7.90